sensor_id;sensor_type;location;lat;lon;timestamp;P1;durP1;ratioP1;P2;durP2;ratioP2
66374;SDS011;53173;52.176;5.314;2023-09-19T11:30:45;7.03;;;1.95;;
66374;SDS011;53173;52.176;5.314;2023-09-19T11:33:17;4.90;;;1.45;;
66374;SDS011;53173;52.176;5.314;2023-09-19T11:36:14;4.65;;;1.50;;
66374;SDS011;53173;52.176;5.314;2023-09-19T11:43:49;6.90;;;1.55;;
66374;SDS011;53173;52.176;5.314;2023-09-19T11:46:22;8.98;;;1.70;;
66374;SDS011;53173;52.176;5.314;2023-09-19T11:48:52;9.85;;;2.20;;
66374;SDS011;53173;52.176;5.314;2023-09-19T11:51:23;9.88;;;1.88;;
66374;SDS011;53173;52.176;5.314;2023-09-19T11:53:55;4.78;;;1.33;;
66374;SDS011;53173;52.176;5.314;2023-09-19T11:56:27;4.00;;;2.13;;
66374;SDS011;53173;52.176;5.314;2023-09-19T11:58:55;6.30;;;1.42;;
66374;SDS011;53173;52.176;5.314;2023-09-19T12:01:32;7.40;;;1.45;;
66374;SDS011;53173;52.176;5.314;2023-09-19T12:04:02;3.80;;;1.55;;
66374;SDS011;53173;52.176;5.314;2023-09-19T12:06:31;7.43;;;1.42;;
66374;SDS011;53173;52.176;5.314;2023-09-19T12:09:03;8.57;;;1.20;;
66374;SDS011;53173;52.176;5.314;2023-09-19T12:11:33;3.47;;;1.58;;
66374;SDS011;53173;52.176;5.314;2023-09-19T12:14:10;5.22;;;0.98;;
66374;SDS011;53173;52.176;5.314;2023-09-19T12:16:38;5.40;;;1.02;;
66374;SDS011;53173;52.176;5.314;2023-09-19T12:19:18;4.85;;;1.83;;
66374;SDS011;53173;52.176;5.314;2023-09-19T12:24:38;5.15;;;1.35;;
66374;SDS011;53173;52.176;5.314;2023-09-19T12:27:08;7.95;;;1.65;;
66374;SDS011;53173;52.176;5.314;2023-09-19T12:29:45;4.03;;;0.88;;
66374;SDS011;53173;52.176;5.314;2023-09-19T12:32:19;6.40;;;1.42;;
66374;SDS011;53173;52.176;5.314;2023-09-19T12:35:03;7.53;;;1.27;;
66374;SDS011;53173;52.176;5.314;2023-09-19T12:37:37;1.83;;;0.90;;
66374;SDS011;53173;52.176;5.314;2023-09-19T12:40:16;5.40;;;1.10;;
66374;SDS011;53173;52.176;5.314;2023-09-19T12:42:48;5.47;;;1.45;;
66374;SDS011;53173;52.176;5.314;2023-09-19T12:45:16;4.60;;;0.93;;
66374;SDS011;53173;52.176;5.314;2023-09-19T12:51:14;4.63;;;1.27;;
66374;SDS011;53173;52.176;5.314;2023-09-19T12:53:43;5.55;;;1.15;;
66374;SDS011;53173;52.176;5.314;2023-09-19T12:56:13;3.25;;;1.50;;
66374;SDS011;53173;52.176;5.314;2023-09-19T12:58:50;5.82;;;1.48;;
66374;SDS011;53173;52.176;5.314;2023-09-19T13:01:24;8.52;;;1.90;;
66374;SDS011;53173;52.176;5.314;2023-09-19T13:04:14;4.20;;;1.20;;
66374;SDS011;53173;52.176;5.314;2023-09-19T13:06:47;4.25;;;1.80;;
66374;SDS011;53173;52.176;5.314;2023-09-19T13:09:19;3.60;;;1.17;;
66374;SDS011;53173;52.176;5.314;2023-09-19T13:11:48;4.63;;;0.93;;
66374;SDS011;53173;52.176;5.314;2023-09-19T13:14:18;1.65;;;0.93;;
66374;SDS011;53173;52.176;5.314;2023-09-19T13:17:01;8.13;;;1.27;;
66374;SDS011;53173;52.176;5.314;2023-09-19T13:19:49;8.55;;;1.17;;
66374;SDS011;53173;52.176;5.314;2023-09-19T13:25:21;2.53;;;1.17;;
66374;SDS011;53173;52.176;5.314;2023-09-19T13:27:55;6.70;;;1.08;;
66374;SDS011;53173;52.176;5.314;2023-09-19T13:30:24;5.57;;;1.40;;
66374;SDS011;53173;52.176;5.314;2023-09-19T13:33:04;3.85;;;1.33;;
66374;SDS011;53173;52.176;5.314;2023-09-19T13:35:36;4.57;;;1.10;;
66374;SDS011;53173;52.176;5.314;2023-09-19T13:38:06;4.13;;;0.90;;
66374;SDS011;53173;52.176;5.314;2023-09-19T13:40:38;7.45;;;1.00;;
66374;SDS011;53173;52.176;5.314;2023-09-19T13:43:08;2.45;;;1.13;;
66374;SDS011;53173;52.176;5.314;2023-09-19T13:45:35;2.60;;;1.20;;
66374;SDS011;53173;52.176;5.314;2023-09-19T13:48:03;4.25;;;1.10;;
66374;SDS011;53173;52.176;5.314;2023-09-19T13:50:31;2.45;;;1.40;;
66374;SDS011;53173;52.176;5.314;2023-09-19T13:52:58;5.93;;;1.30;;
66374;SDS011;53173;52.176;5.314;2023-09-19T13:55:27;1.65;;;0.80;;
66374;SDS011;53173;52.176;5.314;2023-09-19T13:57:54;2.50;;;1.88;;
66374;SDS011;53173;52.176;5.314;2023-09-19T14:00:22;2.72;;;1.27;;
66374;SDS011;53173;52.176;5.314;2023-09-19T14:02:49;7.85;;;1.13;;
66374;SDS011;53173;52.176;5.314;2023-09-19T14:05:18;4.68;;;1.60;;
66374;SDS011;53173;52.176;5.314;2023-09-19T14:07:47;3.33;;;1.02;;
66374;SDS011;53173;52.176;5.314;2023-09-19T14:10:14;4.72;;;1.45;;
66374;SDS011;53173;52.176;5.314;2023-09-19T14:12:42;2.38;;;1.20;;
66374;SDS011;53173;52.176;5.314;2023-09-19T14:15:11;3.35;;;1.45;;
66374;SDS011;53173;52.176;5.314;2023-09-19T14:17:39;3.88;;;1.15;;
66374;SDS011;53173;52.176;5.314;2023-09-19T14:20:09;6.50;;;1.30;;
66374;SDS011;53173;52.176;5.314;2023-09-19T14:22:37;5.05;;;2.03;;
66374;SDS011;53173;52.176;5.314;2023-09-19T14:25:04;2.28;;;1.20;;
66374;SDS011;53173;52.176;5.314;2023-09-19T14:27:32;4.78;;;1.45;;
66374;SDS011;53173;52.176;5.314;2023-09-19T14:29:59;9.68;;;1.77;;
66374;SDS011;53173;52.176;5.314;2023-09-19T14:32:26;6.32;;;1.40;;
66374;SDS011;53173;52.176;5.314;2023-09-19T14:34:52;4.72;;;1.38;;
66374;SDS011;53173;52.176;5.314;2023-09-19T14:37:19;5.63;;;1.35;;
66374;SDS011;53173;52.176;5.314;2023-09-19T14:39:54;2.72;;;1.20;;
66374;SDS011;53173;52.176;5.314;2023-09-19T14:42:22;4.93;;;1.80;;
66374;SDS011;53173;52.176;5.314;2023-09-19T14:44:49;8.88;;;1.55;;
66374;SDS011;53173;52.176;5.314;2023-09-19T14:47:16;4.57;;;1.55;;
66374;SDS011;53173;52.176;5.314;2023-09-19T14:49:44;8.88;;;1.88;;
66374;SDS011;53173;52.176;5.314;2023-09-19T14:52:11;6.45;;;1.48;;
66374;SDS011;53173;52.176;5.314;2023-09-19T14:54:42;3.55;;;1.52;;
66374;SDS011;53173;52.176;5.314;2023-09-19T14:57:09;5.40;;;2.00;;
66374;SDS011;53173;52.176;5.314;2023-09-19T15:02:31;4.78;;;1.85;;
66374;SDS011;53173;52.176;5.314;2023-09-19T15:05:00;5.60;;;1.75;;
66374;SDS011;53173;52.176;5.314;2023-09-19T15:07:28;6.40;;;1.90;;
66374;SDS011;53173;52.176;5.314;2023-09-19T15:09:55;4.35;;;1.73;;
66374;SDS011;53173;52.176;5.314;2023-09-19T15:12:22;7.45;;;1.95;;
66374;SDS011;53173;52.176;5.314;2023-09-19T15:14:49;7.13;;;1.95;;
66374;SDS011;53173;52.176;5.314;2023-09-19T15:17:16;12.75;;;2.35;;
66374;SDS011;53173;52.176;5.314;2023-09-19T15:19:49;3.88;;;1.60;;
66374;SDS011;53173;52.176;5.314;2023-09-19T15:22:16;7.15;;;1.92;;
66374;SDS011;53173;52.176;5.314;2023-09-19T15:24:43;6.50;;;1.65;;
66374;SDS011;53173;52.176;5.314;2023-09-19T15:27:10;5.07;;;1.38;;
66374;SDS011;53173;52.176;5.314;2023-09-19T15:29:42;6.40;;;1.90;;
66374;SDS011;53173;52.176;5.314;2023-09-19T15:32:10;4.95;;;1.60;;
66374;SDS011;53173;52.176;5.314;2023-09-19T15:34:37;6.15;;;1.58;;
66374;SDS011;53173;52.176;5.314;2023-09-19T15:37:04;5.80;;;1.80;;
66374;SDS011;53173;52.176;5.314;2023-09-19T15:39:32;4.32;;;1.80;;
66374;SDS011;53173;52.176;5.314;2023-09-19T15:42:03;5.45;;;1.75;;
66374;SDS011;53173;52.176;5.314;2023-09-19T15:44:30;3.55;;;1.52;;
66374;SDS011;53173;52.176;5.314;2023-09-19T15:46:57;2.90;;;1.20;;
66374;SDS011;53173;52.176;5.314;2023-09-19T15:49:24;2.40;;;1.63;;
66374;SDS011;53173;52.176;5.314;2023-09-19T15:51:51;4.65;;;1.83;;
66374;SDS011;53173;52.176;5.314;2023-09-19T15:54:18;6.63;;;2.05;;
66374;SDS011;53173;52.176;5.314;2023-09-19T15:56:45;7.80;;;2.00;;
66374;SDS011;53173;52.176;5.314;2023-09-19T15:59:15;10.13;;;2.47;;
66374;SDS011;53173;52.176;5.314;2023-09-19T16:01:42;6.15;;;2.10;;
66374;SDS011;53173;52.176;5.314;2023-09-19T16:04:10;6.70;;;2.03;;
66374;SDS011;53173;52.176;5.314;2023-09-19T16:06:39;6.15;;;1.90;;
66374;SDS011;53173;52.176;5.314;2023-09-19T16:09:06;6.47;;;1.73;;
66374;SDS011;53173;52.176;5.314;2023-09-19T16:11:33;6.45;;;1.73;;
66374;SDS011;53173;52.176;5.314;2023-09-19T16:14:04;5.20;;;2.10;;
66374;SDS011;53173;52.176;5.314;2023-09-19T16:16:33;4.15;;;1.90;;
66374;SDS011;53173;52.176;5.314;2023-09-19T16:19:02;5.07;;;1.73;;
66374;SDS011;53173;52.176;5.314;2023-09-19T16:21:32;5.53;;;2.00;;
66374;SDS011;53173;52.176;5.314;2023-09-19T16:24:01;9.18;;;1.88;;
66374;SDS011;53173;52.176;5.314;2023-09-19T16:26:28;6.03;;;1.98;;
66374;SDS011;53173;52.176;5.314;2023-09-19T16:28:57;5.28;;;2.25;;
66374;SDS011;53173;52.176;5.314;2023-09-19T16:31:28;6.15;;;1.60;;
66374;SDS011;53173;52.176;5.314;2023-09-19T16:33:56;4.15;;;1.55;;
66374;SDS011;53173;52.176;5.314;2023-09-19T16:36:23;5.78;;;2.15;;
66374;SDS011;53173;52.176;5.314;2023-09-19T16:38:50;2.60;;;1.60;;
66374;SDS011;53173;52.176;5.314;2023-09-19T16:41:18;10.70;;;2.10;;
66374;SDS011;53173;52.176;5.314;2023-09-19T16:43:46;9.63;;;2.20;;
66374;SDS011;53173;52.176;5.314;2023-09-19T16:46:14;3.47;;;1.67;;
66374;SDS011;53173;52.176;5.314;2023-09-19T16:48:45;12.55;;;1.70;;
66374;SDS011;53173;52.176;5.314;2023-09-19T16:51:31;6.55;;;1.90;;
66374;SDS011;53173;52.176;5.314;2023-09-19T16:53:59;9.40;;;1.85;;
66374;SDS011;53173;52.176;5.314;2023-09-19T16:56:27;8.10;;;2.03;;
66374;SDS011;53173;52.176;5.314;2023-09-19T16:58:55;4.22;;;1.63;;
66374;SDS011;53173;52.176;5.314;2023-09-19T17:01:29;4.07;;;1.33;;
66374;SDS011;53173;52.176;5.314;2023-09-19T17:03:58;7.95;;;1.95;;
66374;SDS011;53173;52.176;5.314;2023-09-19T17:06:27;8.32;;;2.05;;
66374;SDS011;53173;52.176;5.314;2023-09-19T17:08:56;7.25;;;2.30;;
66374;SDS011;53173;52.176;5.314;2023-09-19T17:11:38;3.97;;;1.90;;
66374;SDS011;53173;52.176;5.314;2023-09-19T17:14:05;5.20;;;2.03;;
66374;SDS011;53173;52.176;5.314;2023-09-19T17:16:35;7.85;;;2.00;;
66374;SDS011;53173;52.176;5.314;2023-09-19T17:19:03;9.18;;;2.25;;
66374;SDS011;53173;52.176;5.314;2023-09-19T17:21:31;5.75;;;1.85;;
66374;SDS011;53173;52.176;5.314;2023-09-19T17:23:57;4.97;;;1.50;;
66374;SDS011;53173;52.176;5.314;2023-09-19T17:26:25;6.20;;;2.47;;
66374;SDS011;53173;52.176;5.314;2023-09-19T17:28:53;8.75;;;1.75;;
66374;SDS011;53173;52.176;5.314;2023-09-19T17:31:21;4.68;;;2.25;;
66374;SDS011;53173;52.176;5.314;2023-09-19T17:33:51;4.15;;;2.03;;
66374;SDS011;53173;52.176;5.314;2023-09-19T17:36:26;5.57;;;1.92;;
66374;SDS011;53173;52.176;5.314;2023-09-19T17:38:58;3.92;;;1.80;;
66374;SDS011;53173;52.176;5.314;2023-09-19T17:41:26;5.43;;;1.77;;
66374;SDS011;53173;52.176;5.314;2023-09-19T17:43:54;3.42;;;1.58;;
66374;SDS011;53173;52.176;5.314;2023-09-19T17:46:23;8.95;;;2.33;;
66374;SDS011;53173;52.176;5.314;2023-09-19T17:48:53;8.32;;;1.92;;
66374;SDS011;53173;52.176;5.314;2023-09-19T17:51:37;4.07;;;2.00;;
66374;SDS011;53173;52.176;5.314;2023-09-19T17:54:05;10.25;;;2.42;;
66374;SDS011;53173;52.176;5.314;2023-09-19T17:56:32;9.40;;;2.28;;
66374;SDS011;53173;52.176;5.314;2023-09-19T17:59:01;3.90;;;1.83;;
66374;SDS011;53173;52.176;5.314;2023-09-19T18:01:28;7.55;;;1.77;;
66374;SDS011;53173;52.176;5.314;2023-09-19T18:03:57;14.68;;;1.83;;
66374;SDS011;53173;52.176;5.314;2023-09-19T18:06:26;5.38;;;2.55;;
66374;SDS011;53173;52.176;5.314;2023-09-19T18:08:54;4.88;;;2.28;;
66374;SDS011;53173;52.176;5.314;2023-09-19T18:11:23;7.25;;;1.92;;
66374;SDS011;53173;52.176;5.314;2023-09-19T18:13:55;7.50;;;2.28;;
66374;SDS011;53173;52.176;5.314;2023-09-19T18:16:24;7.38;;;2.40;;
66374;SDS011;53173;52.176;5.314;2023-09-19T18:18:54;4.18;;;2.25;;
66374;SDS011;53173;52.176;5.314;2023-09-19T18:21:28;7.63;;;2.50;;
66374;SDS011;53173;52.176;5.314;2023-09-19T18:23:58;7.32;;;2.45;;
66374;SDS011;53173;52.176;5.314;2023-09-19T18:26:28;6.22;;;2.22;;
66374;SDS011;53173;52.176;5.314;2023-09-19T18:28:54;6.70;;;2.15;;
66374;SDS011;53173;52.176;5.314;2023-09-19T18:31:29;9.10;;;2.70;;
66374;SDS011;53173;52.176;5.314;2023-09-19T18:33:58;6.20;;;2.08;;
66374;SDS011;53173;52.176;5.314;2023-09-19T18:36:26;10.07;;;2.10;;
66374;SDS011;53173;52.176;5.314;2023-09-19T18:38:55;4.90;;;1.73;;
66374;SDS011;53173;52.176;5.314;2023-09-19T18:44:15;8.48;;;2.22;;
66374;SDS011;53173;52.176;5.314;2023-09-19T18:46:44;9.38;;;2.33;;
66374;SDS011;53173;52.176;5.314;2023-09-19T18:49:11;4.30;;;2.00;;
66374;SDS011;53173;52.176;5.314;2023-09-19T18:51:40;6.32;;;2.30;;
66374;SDS011;53173;52.176;5.314;2023-09-19T18:54:09;3.72;;;1.88;;
66374;SDS011;53173;52.176;5.314;2023-09-19T18:56:40;4.72;;;1.98;;
66374;SDS011;53173;52.176;5.314;2023-09-19T18:59:08;5.03;;;2.08;;
66374;SDS011;53173;52.176;5.314;2023-09-19T19:01:37;3.97;;;1.60;;
66374;SDS011;53173;52.176;5.314;2023-09-19T19:04:04;6.90;;;1.90;;
66374;SDS011;53173;52.176;5.314;2023-09-19T19:06:31;3.88;;;1.92;;
66374;SDS011;53173;52.176;5.314;2023-09-19T19:08:59;7.00;;;1.83;;
66374;SDS011;53173;52.176;5.314;2023-09-19T19:11:26;4.20;;;1.75;;
66374;SDS011;53173;52.176;5.314;2023-09-19T19:13:56;9.38;;;1.98;;
66374;SDS011;53173;52.176;5.314;2023-09-19T19:16:25;3.88;;;2.10;;
66374;SDS011;53173;52.176;5.314;2023-09-19T19:18:53;2.38;;;1.60;;
66374;SDS011;53173;52.176;5.314;2023-09-19T19:24:12;3.30;;;2.10;;
66374;SDS011;53173;52.176;5.314;2023-09-19T19:26:43;2.13;;;1.50;;
66374;SDS011;53173;52.176;5.314;2023-09-19T19:29:11;4.55;;;2.00;;
66374;SDS011;53173;52.176;5.314;2023-09-19T19:31:39;6.22;;;2.22;;
66374;SDS011;53173;52.176;5.314;2023-09-19T19:34:06;6.20;;;1.75;;
66374;SDS011;53173;52.176;5.314;2023-09-19T19:36:36;5.43;;;2.28;;
66374;SDS011;53173;52.176;5.314;2023-09-19T19:39:03;4.75;;;2.15;;
66374;SDS011;53173;52.176;5.314;2023-09-19T19:41:33;6.22;;;2.53;;
66374;SDS011;53173;52.176;5.314;2023-09-19T19:44:06;4.90;;;2.25;;
66374;SDS011;53173;52.176;5.314;2023-09-19T19:46:34;4.63;;;2.50;;
66374;SDS011;53173;52.176;5.314;2023-09-19T19:49:01;2.67;;;1.83;;
66374;SDS011;53173;52.176;5.314;2023-09-19T19:51:29;4.53;;;2.38;;
66374;SDS011;53173;52.176;5.314;2023-09-19T19:53:56;5.60;;;2.35;;
66374;SDS011;53173;52.176;5.314;2023-09-19T19:56:23;6.45;;;2.55;;
66374;SDS011;53173;52.176;5.314;2023-09-19T19:58:50;4.13;;;2.35;;
66374;SDS011;53173;52.176;5.314;2023-09-19T20:01:18;3.67;;;1.98;;
66374;SDS011;53173;52.176;5.314;2023-09-19T20:03:44;6.93;;;2.63;;
66374;SDS011;53173;52.176;5.314;2023-09-19T20:06:12;8.35;;;2.33;;
66374;SDS011;53173;52.176;5.314;2023-09-19T20:08:39;10.60;;;3.13;;
66374;SDS011;53173;52.176;5.314;2023-09-19T20:11:07;6.57;;;2.20;;
66374;SDS011;53173;52.176;5.314;2023-09-19T20:13:35;4.03;;;1.65;;
66374;SDS011;53173;52.176;5.314;2023-09-19T20:16:09;10.23;;;3.60;;
66374;SDS011;53173;52.176;5.314;2023-09-19T20:18:36;6.68;;;2.42;;
66374;SDS011;53173;52.176;5.314;2023-09-19T20:21:06;7.90;;;2.92;;
66374;SDS011;53173;52.176;5.314;2023-09-19T20:23:37;6.20;;;2.30;;
66374;SDS011;53173;52.176;5.314;2023-09-19T20:26:04;5.43;;;2.33;;
66374;SDS011;53173;52.176;5.314;2023-09-19T20:28:33;8.45;;;2.67;;
66374;SDS011;53173;52.176;5.314;2023-09-19T20:31:10;8.02;;;2.80;;
66374;SDS011;53173;52.176;5.314;2023-09-19T20:33:40;6.60;;;2.50;;
66374;SDS011;53173;52.176;5.314;2023-09-19T20:36:08;5.72;;;2.58;;
66374;SDS011;53173;52.176;5.314;2023-09-19T20:38:37;9.23;;;2.50;;
66374;SDS011;53173;52.176;5.314;2023-09-19T20:41:09;4.72;;;2.22;;
66374;SDS011;53173;52.176;5.314;2023-09-19T20:43:36;7.22;;;2.50;;
66374;SDS011;53173;52.176;5.314;2023-09-19T20:46:09;9.57;;;2.60;;
66374;SDS011;53173;52.176;5.314;2023-09-19T20:48:38;7.28;;;2.83;;
66374;SDS011;53173;52.176;5.314;2023-09-19T20:51:08;7.00;;;3.50;;
66374;SDS011;53173;52.176;5.314;2023-09-19T20:53:39;4.80;;;2.50;;
66374;SDS011;53173;52.176;5.314;2023-09-19T20:56:10;6.30;;;2.50;;
66374;SDS011;53173;52.176;5.314;2023-09-19T20:58:39;10.68;;;2.83;;
66374;SDS011;53173;52.176;5.314;2023-09-19T21:01:09;10.18;;;2.72;;
66374;SDS011;53173;52.176;5.314;2023-09-19T21:03:37;5.82;;;2.25;;
66374;SDS011;53173;52.176;5.314;2023-09-19T21:06:06;8.50;;;3.00;;
66374;SDS011;53173;52.176;5.314;2023-09-19T21:08:34;6.72;;;3.05;;
66374;SDS011;53173;52.176;5.314;2023-09-19T21:13:38;11.15;;;2.70;;
66374;SDS011;53173;52.176;5.314;2023-09-19T21:16:06;10.73;;;3.00;;
66374;SDS011;53173;52.176;5.314;2023-09-19T21:18:34;7.10;;;2.75;;
66374;SDS011;53173;52.176;5.314;2023-09-19T21:21:02;5.72;;;2.10;;
66374;SDS011;53173;52.176;5.314;2023-09-19T21:23:31;8.13;;;2.55;;
66374;SDS011;53173;52.176;5.314;2023-09-19T21:25:57;9.05;;;2.65;;
66374;SDS011;53173;52.176;5.314;2023-09-19T21:28:25;5.43;;;2.33;;
66374;SDS011;53173;52.176;5.314;2023-09-19T21:30:59;5.97;;;2.65;;
66374;SDS011;53173;52.176;5.314;2023-09-19T21:33:33;5.78;;;2.83;;
66374;SDS011;53173;52.176;5.314;2023-09-19T21:36:06;9.25;;;2.45;;
66374;SDS011;53173;52.176;5.314;2023-09-19T21:38:39;6.97;;;2.40;;
66374;SDS011;53173;52.176;5.314;2023-09-19T21:41:07;6.13;;;2.35;;
66374;SDS011;53173;52.176;5.314;2023-09-19T21:43:37;8.55;;;2.92;;
66374;SDS011;53173;52.176;5.314;2023-09-19T21:46:05;6.95;;;2.72;;
66374;SDS011;53173;52.176;5.314;2023-09-19T21:48:32;6.80;;;2.40;;
66374;SDS011;53173;52.176;5.314;2023-09-19T21:50:59;10.38;;;2.72;;
66374;SDS011;53173;52.176;5.314;2023-09-19T21:53:26;7.10;;;2.13;;
66374;SDS011;53173;52.176;5.314;2023-09-19T21:56:01;6.45;;;2.55;;
66374;SDS011;53173;52.176;5.314;2023-09-19T21:58:29;11.50;;;2.47;;
66374;SDS011;53173;52.176;5.314;2023-09-19T22:01:04;5.05;;;2.47;;
66374;SDS011;53173;52.176;5.314;2023-09-19T22:03:35;6.65;;;3.15;;
66374;SDS011;53173;52.176;5.314;2023-09-19T22:06:08;5.63;;;2.33;;
66374;SDS011;53173;52.176;5.314;2023-09-19T22:08:36;10.68;;;2.67;;
66374;SDS011;53173;52.176;5.314;2023-09-19T22:11:04;4.80;;;1.88;;
66374;SDS011;53173;52.176;5.314;2023-09-19T22:13:38;5.93;;;2.28;;
66374;SDS011;53173;52.176;5.314;2023-09-19T22:16:12;5.30;;;2.72;;
66374;SDS011;53173;52.176;5.314;2023-09-19T22:18:42;7.18;;;2.90;;
66374;SDS011;53173;52.176;5.314;2023-09-19T22:21:19;5.55;;;2.22;;
66374;SDS011;53173;52.176;5.314;2023-09-19T22:23:58;8.43;;;2.22;;
66374;SDS011;53173;52.176;5.314;2023-09-19T22:26:25;8.63;;;2.95;;
66374;SDS011;53173;52.176;5.314;2023-09-19T22:28:53;10.65;;;2.58;;
66374;SDS011;53173;52.176;5.314;2023-09-19T22:33:49;4.15;;;1.73;;
66374;SDS011;53173;52.176;5.314;2023-09-19T22:36:18;7.38;;;2.65;;
66374;SDS011;53173;52.176;5.314;2023-09-19T22:38:59;7.32;;;2.83;;
66374;SDS011;53173;52.176;5.314;2023-09-19T22:41:30;7.80;;;2.53;;
66374;SDS011;53173;52.176;5.314;2023-09-19T22:43:58;7.53;;;2.88;;
66374;SDS011;53173;52.176;5.314;2023-09-19T22:46:26;6.88;;;2.40;;
66374;SDS011;53173;52.176;5.314;2023-09-19T22:48:54;6.60;;;2.38;;
66374;SDS011;53173;52.176;5.314;2023-09-19T22:51:22;7.80;;;2.90;;
66374;SDS011;53173;52.176;5.314;2023-09-19T22:53:50;6.55;;;2.63;;
66374;SDS011;53173;52.176;5.314;2023-09-19T22:56:26;10.05;;;2.80;;
66374;SDS011;53173;52.176;5.314;2023-09-19T22:58:54;6.88;;;2.38;;
66374;SDS011;53173;52.176;5.314;2023-09-19T23:01:22;10.57;;;2.63;;
66374;SDS011;53173;52.176;5.314;2023-09-19T23:04:02;9.70;;;3.33;;
66374;SDS011;53173;52.176;5.314;2023-09-19T23:06:34;4.82;;;2.85;;
66374;SDS011;53173;52.176;5.314;2023-09-19T23:09:02;9.57;;;2.42;;
66374;SDS011;53173;52.176;5.314;2023-09-19T23:11:30;8.15;;;2.78;;
66374;SDS011;53173;52.176;5.314;2023-09-19T23:13:58;7.45;;;3.20;;
66374;SDS011;53173;52.176;5.314;2023-09-19T23:16:27;9.45;;;2.83;;
66374;SDS011;53173;52.176;5.314;2023-09-19T23:18:59;9.48;;;3.08;;
66374;SDS011;53173;52.176;5.314;2023-09-19T23:21:30;5.82;;;2.38;;
66374;SDS011;53173;52.176;5.314;2023-09-19T23:23:58;3.40;;;2.28;;
66374;SDS011;53173;52.176;5.314;2023-09-19T23:26:25;4.88;;;2.45;;
66374;SDS011;53173;52.176;5.314;2023-09-19T23:28:52;6.00;;;2.30;;
66374;SDS011;53173;52.176;5.314;2023-09-19T23:31:19;6.97;;;3.00;;
66374;SDS011;53173;52.176;5.314;2023-09-19T23:33:47;7.70;;;2.50;;
66374;SDS011;53173;52.176;5.314;2023-09-19T23:36:15;5.22;;;2.65;;
66374;SDS011;53173;52.176;5.314;2023-09-19T23:38:43;9.60;;;3.15;;
66374;SDS011;53173;52.176;5.314;2023-09-19T23:41:13;9.38;;;2.65;;
66374;SDS011;53173;52.176;5.314;2023-09-19T23:43:47;8.45;;;2.70;;
66374;SDS011;53173;52.176;5.314;2023-09-19T23:46:19;11.90;;;3.03;;
66374;SDS011;53173;52.176;5.314;2023-09-19T23:48:47;7.18;;;2.40;;
66374;SDS011;53173;52.176;5.314;2023-09-19T23:51:20;5.00;;;2.33;;
66374;SDS011;53173;52.176;5.314;2023-09-19T23:53:47;7.07;;;2.17;;
66374;SDS011;53173;52.176;5.314;2023-09-19T23:56:14;7.25;;;2.83;;
66374;SDS011;53173;52.176;5.314;2023-09-19T23:58:42;9.57;;;2.90;;
